KEMT

San Gabriel Valley Airport

El Monte, California, USA
METAR KEMT 242345Z 21007KT 10SM SCT027 OVC033 18/12 A3007
Observed Flight Rules
May-24 @ 23:45 UTC (an hour ago) Visual Flight Rules
Wind Visibility Clouds
210° at 7 knots 10 miles
  • Scattered at 2,700' AGL
  • Overcast at 3,300' AGL
Temperatures Readings
Current 18°C / 64°F
Dewpoint 12°C / 54°F
Humidity 68%
Altimeter 30.07" Hg
Pressure 1018 hPa
Elevation 90
METAR KEMT 242345Z 21007KT 10SM SCT027 OVC033 18/12 A3007
Observed Flight Rules
May-24 @ 23:45 UTC
(an hour ago)
VFR
Wind Visibility
210° at 7 knots 10 miles
Clouds
  • Scattered at 2,700' AGL
  • Overcast at 3,300' AGL
Temperature Dewpoint
18°C / 64°F 12°C / 54°F
Humidity Altimeter Pressure
68% 30.07" Hg 1018 hPa